sensor_id;sensor_type;location;lat;lon;timestamp;P1;durP1;ratioP1;P2;durP2;ratioP2
48014;SDS011;33780;51.034;7.120;2024-03-08T00:00:04;16.98;;;10.85;;
48014;SDS011;33780;51.034;7.120;2024-03-08T00:02:55;18.55;;;11.52;;
48014;SDS011;33780;51.034;7.120;2024-03-08T00:05:20;18.02;;;10.35;;
48014;SDS011;33780;51.034;7.120;2024-03-08T00:07:45;19.10;;;11.13;;
48014;SDS011;33780;51.034;7.120;2024-03-08T00:10:11;17.58;;;10.82;;
48014;SDS011;33780;51.034;7.120;2024-03-08T00:12:38;17.00;;;10.80;;
48014;SDS011;33780;51.034;7.120;2024-03-08T00:15:07;18.50;;;10.93;;
48014;SDS011;33780;51.034;7.120;2024-03-08T00:17:38;18.58;;;11.15;;
48014;SDS011;33780;51.034;7.120;2024-03-08T00:20:04;15.48;;;10.43;;
48014;SDS011;33780;51.034;7.120;2024-03-08T00:22:33;17.17;;;10.90;;
48014;SDS011;33780;51.034;7.120;2024-03-08T00:25:02;18.42;;;11.05;;
48014;SDS011;33780;51.034;7.120;2024-03-08T00:27:28;17.70;;;10.65;;
48014;SDS011;33780;51.034;7.120;2024-03-08T00:29:55;18.17;;;11.27;;
48014;SDS011;33780;51.034;7.120;2024-03-08T00:32:21;19.15;;;11.77;;
48014;SDS011;33780;51.034;7.120;2024-03-08T00:34:49;18.13;;;11.15;;
48014;SDS011;33780;51.034;7.120;2024-03-08T00:37:16;17.23;;;11.55;;
48014;SDS011;33780;51.034;7.120;2024-03-08T00:39:42;17.88;;;11.15;;
48014;SDS011;33780;51.034;7.120;2024-03-08T00:42:07;20.00;;;11.57;;
48014;SDS011;33780;51.034;7.120;2024-03-08T00:44:33;18.13;;;10.95;;
48014;SDS011;33780;51.034;7.120;2024-03-08T00:46:58;16.85;;;11.15;;
48014;SDS011;33780;51.034;7.120;2024-03-08T00:49:24;20.05;;;12.00;;
48014;SDS011;33780;51.034;7.120;2024-03-08T00:51:50;20.45;;;11.00;;
48014;SDS011;33780;51.034;7.120;2024-03-08T00:54:15;23.90;;;12.05;;
48014;SDS011;33780;51.034;7.120;2024-03-08T00:56:41;19.00;;;11.07;;
48014;SDS011;33780;51.034;7.120;2024-03-08T00:59:07;19.55;;;11.73;;
48014;SDS011;33780;51.034;7.120;2024-03-08T01:01:32;18.38;;;11.25;;
48014;SDS011;33780;51.034;7.120;2024-03-08T01:03:58;17.80;;;11.57;;
48014;SDS011;33780;51.034;7.120;2024-03-08T01:06:23;17.88;;;11.48;;
48014;SDS011;33780;51.034;7.120;2024-03-08T01:08:49;19.30;;;10.93;;
48014;SDS011;33780;51.034;7.120;2024-03-08T01:11:16;16.70;;;10.80;;
48014;SDS011;33780;51.034;7.120;2024-03-08T01:13:42;17.90;;;11.57;;
48014;SDS011;33780;51.034;7.120;2024-03-08T01:16:07;17.40;;;11.38;;
48014;SDS011;33780;51.034;7.120;2024-03-08T01:18:32;20.13;;;11.70;;
48014;SDS011;33780;51.034;7.120;2024-03-08T01:20:58;19.15;;;11.60;;
48014;SDS011;33780;51.034;7.120;2024-03-08T01:23:23;20.48;;;11.48;;
48014;SDS011;33780;51.034;7.120;2024-03-08T01:25:49;19.75;;;11.30;;
48014;SDS011;33780;51.034;7.120;2024-03-08T01:28:21;20.58;;;11.68;;
48014;SDS011;33780;51.034;7.120;2024-03-08T01:30:47;17.40;;;11.65;;
48014;SDS011;33780;51.034;7.120;2024-03-08T01:33:14;19.52;;;11.70;;
48014;SDS011;33780;51.034;7.120;2024-03-08T01:35:39;19.02;;;11.68;;
48014;SDS011;33780;51.034;7.120;2024-03-08T01:38:06;21.17;;;11.18;;
48014;SDS011;33780;51.034;7.120;2024-03-08T01:40:31;17.85;;;11.80;;
48014;SDS011;33780;51.034;7.120;2024-03-08T01:42:57;20.08;;;12.10;;
48014;SDS011;33780;51.034;7.120;2024-03-08T01:45:22;20.08;;;11.52;;
48014;SDS011;33780;51.034;7.120;2024-03-08T01:47:47;18.25;;;11.10;;
48014;SDS011;33780;51.034;7.120;2024-03-08T01:50:13;19.45;;;11.85;;
48014;SDS011;33780;51.034;7.120;2024-03-08T01:52:40;19.48;;;11.98;;
48014;SDS011;33780;51.034;7.120;2024-03-08T01:55:06;19.02;;;11.35;;
48014;SDS011;33780;51.034;7.120;2024-03-08T01:57:32;19.13;;;11.90;;
48014;SDS011;33780;51.034;7.120;2024-03-08T01:59:59;20.63;;;12.10;;
48014;SDS011;33780;51.034;7.120;2024-03-08T02:02:28;18.77;;;11.35;;
48014;SDS011;33780;51.034;7.120;2024-03-08T02:04:57;22.20;;;12.45;;
48014;SDS011;33780;51.034;7.120;2024-03-08T02:07:22;20.02;;;11.95;;
48014;SDS011;33780;51.034;7.120;2024-03-08T02:09:47;18.50;;;11.93;;
48014;SDS011;33780;51.034;7.120;2024-03-08T02:12:13;19.45;;;11.80;;
48014;SDS011;33780;51.034;7.120;2024-03-08T02:14:38;21.75;;;11.73;;
48014;SDS011;33780;51.034;7.120;2024-03-08T02:17:05;20.80;;;11.70;;
48014;SDS011;33780;51.034;7.120;2024-03-08T02:19:30;19.05;;;11.50;;
48014;SDS011;33780;51.034;7.120;2024-03-08T02:21:55;19.58;;;11.40;;
48014;SDS011;33780;51.034;7.120;2024-03-08T02:24:21;21.10;;;12.35;;
48014;SDS011;33780;51.034;7.120;2024-03-08T02:26:48;23.05;;;12.02;;
48014;SDS011;33780;51.034;7.120;2024-03-08T02:29:14;19.27;;;11.75;;
48014;SDS011;33780;51.034;7.120;2024-03-08T02:31:39;20.17;;;11.52;;
48014;SDS011;33780;51.034;7.120;2024-03-08T02:34:05;19.17;;;11.95;;
48014;SDS011;33780;51.034;7.120;2024-03-08T02:36:30;20.10;;;12.38;;
48014;SDS011;33780;51.034;7.120;2024-03-08T02:38:59;22.48;;;12.35;;
48014;SDS011;33780;51.034;7.120;2024-03-08T02:41:26;20.40;;;11.80;;
48014;SDS011;33780;51.034;7.120;2024-03-08T02:43:51;19.15;;;11.57;;
48014;SDS011;33780;51.034;7.120;2024-03-08T02:46:16;18.08;;;11.70;;
48014;SDS011;33780;51.034;7.120;2024-03-08T02:48:41;18.40;;;11.20;;
48014;SDS011;33780;51.034;7.120;2024-03-08T02:51:07;21.67;;;12.10;;
48014;SDS011;33780;51.034;7.120;2024-03-08T02:53:32;19.42;;;11.85;;
48014;SDS011;33780;51.034;7.120;2024-03-08T02:55:57;20.40;;;12.13;;
48014;SDS011;33780;51.034;7.120;2024-03-08T02:58:23;18.35;;;11.48;;
48014;SDS011;33780;51.034;7.120;2024-03-08T03:00:48;18.73;;;11.75;;
48014;SDS011;33780;51.034;7.120;2024-03-08T03:03:13;20.08;;;11.82;;
48014;SDS011;33780;51.034;7.120;2024-03-08T03:05:39;19.88;;;11.80;;
48014;SDS011;33780;51.034;7.120;2024-03-08T03:08:06;21.13;;;11.95;;
48014;SDS011;33780;51.034;7.120;2024-03-08T03:10:33;18.77;;;11.45;;
48014;SDS011;33780;51.034;7.120;2024-03-08T03:12:59;20.67;;;12.27;;
48014;SDS011;33780;51.034;7.120;2024-03-08T03:15:24;18.85;;;12.07;;
48014;SDS011;33780;51.034;7.120;2024-03-08T03:17:50;18.40;;;11.65;;
48014;SDS011;33780;51.034;7.120;2024-03-08T03:20:16;20.25;;;11.77;;
48014;SDS011;33780;51.034;7.120;2024-03-08T03:22:47;19.20;;;11.40;;
48014;SDS011;33780;51.034;7.120;2024-03-08T03:25:21;18.50;;;11.45;;
48014;SDS011;33780;51.034;7.120;2024-03-08T03:27:50;20.67;;;12.02;;
48014;SDS011;33780;51.034;7.120;2024-03-08T03:30:16;18.90;;;11.52;;
48014;SDS011;33780;51.034;7.120;2024-03-08T03:32:46;21.08;;;12.55;;
48014;SDS011;33780;51.034;7.120;2024-03-08T03:35:13;19.70;;;11.52;;
48014;SDS011;33780;51.034;7.120;2024-03-08T03:37:40;19.38;;;11.38;;
48014;SDS011;33780;51.034;7.120;2024-03-08T03:40:07;19.95;;;11.82;;
48014;SDS011;33780;51.034;7.120;2024-03-08T03:42:33;19.58;;;11.43;;
48014;SDS011;33780;51.034;7.120;2024-03-08T03:44:59;20.40;;;11.32;;
48014;SDS011;33780;51.034;7.120;2024-03-08T03:47:24;19.52;;;11.20;;
48014;SDS011;33780;51.034;7.120;2024-03-08T03:49:51;19.90;;;11.32;;
48014;SDS011;33780;51.034;7.120;2024-03-08T03:52:18;18.17;;;11.32;;
48014;SDS011;33780;51.034;7.120;2024-03-08T03:54:43;22.75;;;11.75;;
48014;SDS011;33780;51.034;7.120;2024-03-08T03:57:09;18.85;;;11.43;;
48014;SDS011;33780;51.034;7.120;2024-03-08T03:59:34;19.67;;;11.00;;
48014;SDS011;33780;51.034;7.120;2024-03-08T04:01:59;19.50;;;11.13;;
48014;SDS011;33780;51.034;7.120;2024-03-08T04:04:25;18.88;;;11.23;;
48014;SDS011;33780;51.034;7.120;2024-03-08T04:06:50;19.80;;;11.65;;
48014;SDS011;33780;51.034;7.120;2024-03-08T04:09:16;20.00;;;11.50;;
48014;SDS011;33780;51.034;7.120;2024-03-08T04:11:44;20.70;;;11.57;;
48014;SDS011;33780;51.034;7.120;2024-03-08T04:14:09;21.70;;;11.38;;
48014;SDS011;33780;51.034;7.120;2024-03-08T04:16:35;19.02;;;11.13;;
48014;SDS011;33780;51.034;7.120;2024-03-08T04:19:01;19.48;;;11.27;;
48014;SDS011;33780;51.034;7.120;2024-03-08T04:21:29;19.77;;;11.27;;
48014;SDS011;33780;51.034;7.120;2024-03-08T04:23:55;20.10;;;11.57;;
48014;SDS011;33780;51.034;7.120;2024-03-08T04:26:21;24.25;;;12.60;;
48014;SDS011;33780;51.034;7.120;2024-03-08T04:28:46;19.73;;;12.02;;
48014;SDS011;33780;51.034;7.120;2024-03-08T04:31:12;20.77;;;11.93;;
48014;SDS011;33780;51.034;7.120;2024-03-08T04:33:37;21.13;;;11.93;;
48014;SDS011;33780;51.034;7.120;2024-03-08T04:36:03;20.00;;;11.68;;
48014;SDS011;33780;51.034;7.120;2024-03-08T04:38:29;19.67;;;11.15;;
48014;SDS011;33780;51.034;7.120;2024-03-08T04:40:55;21.05;;;12.43;;
48014;SDS011;33780;51.034;7.120;2024-03-08T04:43:21;20.35;;;12.55;;
48014;SDS011;33780;51.034;7.120;2024-03-08T04:45:50;21.42;;;11.93;;
48014;SDS011;33780;51.034;7.120;2024-03-08T04:48:15;21.58;;;11.73;;
48014;SDS011;33780;51.034;7.120;2024-03-08T04:50:40;21.08;;;12.68;;
48014;SDS011;33780;51.034;7.120;2024-03-08T04:53:06;21.75;;;12.35;;
48014;SDS011;33780;51.034;7.120;2024-03-08T04:55:33;22.95;;;12.75;;
48014;SDS011;33780;51.034;7.120;2024-03-08T04:57:59;21.67;;;12.40;;
48014;SDS011;33780;51.034;7.120;2024-03-08T05:00:24;21.30;;;12.27;;
48014;SDS011;33780;51.034;7.120;2024-03-08T05:02:50;20.73;;;11.82;;
48014;SDS011;33780;51.034;7.120;2024-03-08T05:05:18;21.45;;;11.80;;
48014;SDS011;33780;51.034;7.120;2024-03-08T05:07:43;21.10;;;12.00;;
48014;SDS011;33780;51.034;7.120;2024-03-08T05:10:10;23.52;;;12.38;;
48014;SDS011;33780;51.034;7.120;2024-03-08T05:12:36;21.70;;;12.13;;
48014;SDS011;33780;51.034;7.120;2024-03-08T05:15:03;22.60;;;12.40;;
48014;SDS011;33780;51.034;7.120;2024-03-08T05:17:30;18.90;;;12.13;;
48014;SDS011;33780;51.034;7.120;2024-03-08T05:19:55;20.48;;;12.35;;
48014;SDS011;33780;51.034;7.120;2024-03-08T05:22:21;21.55;;;12.57;;
48014;SDS011;33780;51.034;7.120;2024-03-08T05:24:46;19.55;;;12.20;;
48014;SDS011;33780;51.034;7.120;2024-03-08T05:27:11;22.35;;;12.77;;
48014;SDS011;33780;51.034;7.120;2024-03-08T05:29:38;22.02;;;12.35;;
48014;SDS011;33780;51.034;7.120;2024-03-08T05:32:03;21.63;;;11.93;;
48014;SDS011;33780;51.034;7.120;2024-03-08T05:34:29;21.48;;;12.35;;
48014;SDS011;33780;51.034;7.120;2024-03-08T05:36:55;21.73;;;12.27;;
48014;SDS011;33780;51.034;7.120;2024-03-08T05:39:20;22.95;;;12.35;;
48014;SDS011;33780;51.034;7.120;2024-03-08T05:41:46;19.60;;;11.65;;
48014;SDS011;33780;51.034;7.120;2024-03-08T05:44:12;18.80;;;11.75;;
48014;SDS011;33780;51.034;7.120;2024-03-08T05:46:38;20.77;;;12.18;;
48014;SDS011;33780;51.034;7.120;2024-03-08T05:49:04;22.23;;;12.95;;
48014;SDS011;33780;51.034;7.120;2024-03-08T05:51:33;19.83;;;12.00;;
48014;SDS011;33780;51.034;7.120;2024-03-08T05:54:03;21.58;;;12.00;;
48014;SDS011;33780;51.034;7.120;2024-03-08T05:56:30;26.00;;;12.25;;
48014;SDS011;33780;51.034;7.120;2024-03-08T05:58:56;20.67;;;12.45;;
48014;SDS011;33780;51.034;7.120;2024-03-08T06:01:23;21.65;;;12.60;;
48014;SDS011;33780;51.034;7.120;2024-03-08T06:03:49;21.52;;;12.13;;
48014;SDS011;33780;51.034;7.120;2024-03-08T06:06:14;22.98;;;13.25;;
48014;SDS011;33780;51.034;7.120;2024-03-08T06:08:40;21.65;;;12.43;;
48014;SDS011;33780;51.034;7.120;2024-03-08T06:11:08;21.85;;;12.25;;
48014;SDS011;33780;51.034;7.120;2024-03-08T06:13:33;21.23;;;12.52;;
48014;SDS011;33780;51.034;7.120;2024-03-08T06:15:59;21.30;;;12.40;;
48014;SDS011;33780;51.034;7.120;2024-03-08T06:18:29;22.13;;;12.13;;
48014;SDS011;33780;51.034;7.120;2024-03-08T06:20:55;20.90;;;11.73;;
48014;SDS011;33780;51.034;7.120;2024-03-08T06:23:21;23.10;;;12.73;;
48014;SDS011;33780;51.034;7.120;2024-03-08T06:25:46;22.92;;;12.45;;
48014;SDS011;33780;51.034;7.120;2024-03-08T06:28:12;22.25;;;12.75;;
48014;SDS011;33780;51.034;7.120;2024-03-08T06:30:39;23.25;;;12.73;;
48014;SDS011;33780;51.034;7.120;2024-03-08T06:33:04;21.83;;;12.15;;
48014;SDS011;33780;51.034;7.120;2024-03-08T06:35:30;22.38;;;12.82;;
48014;SDS011;33780;51.034;7.120;2024-03-08T06:37:57;24.02;;;12.85;;
48014;SDS011;33780;51.034;7.120;2024-03-08T06:40:22;21.65;;;12.20;;
48014;SDS011;33780;51.034;7.120;2024-03-08T06:42:48;23.88;;;12.13;;
48014;SDS011;33780;51.034;7.120;2024-03-08T06:45:13;21.85;;;12.57;;
48014;SDS011;33780;51.034;7.120;2024-03-08T06:47:44;23.02;;;12.73;;
48014;SDS011;33780;51.034;7.120;2024-03-08T06:50:10;22.02;;;12.68;;
48014;SDS011;33780;51.034;7.120;2024-03-08T06:52:36;23.58;;;12.77;;
48014;SDS011;33780;51.034;7.120;2024-03-08T06:55:01;21.17;;;12.10;;
48014;SDS011;33780;51.034;7.120;2024-03-08T06:57:30;23.67;;;12.68;;
48014;SDS011;33780;51.034;7.120;2024-03-08T06:59:56;23.80;;;12.40;;
48014;SDS011;33780;51.034;7.120;2024-03-08T07:02:22;21.83;;;12.07;;
48014;SDS011;33780;51.034;7.120;2024-03-08T07:04:49;21.92;;;12.88;;
48014;SDS011;33780;51.034;7.120;2024-03-08T07:07:15;20.90;;;12.35;;
48014;SDS011;33780;51.034;7.120;2024-03-08T07:09:40;22.05;;;12.43;;
48014;SDS011;33780;51.034;7.120;2024-03-08T07:12:07;25.17;;;13.82;;
48014;SDS011;33780;51.034;7.120;2024-03-08T07:14:33;21.65;;;12.18;;
48014;SDS011;33780;51.034;7.120;2024-03-08T07:16:58;21.88;;;12.48;;
48014;SDS011;33780;51.034;7.120;2024-03-08T07:19:23;21.67;;;12.23;;
48014;SDS011;33780;51.034;7.120;2024-03-08T07:21:49;21.63;;;12.05;;
48014;SDS011;33780;51.034;7.120;2024-03-08T07:24:14;22.05;;;12.70;;
48014;SDS011;33780;51.034;7.120;2024-03-08T07:26:42;22.85;;;13.07;;
48014;SDS011;33780;51.034;7.120;2024-03-08T07:29:08;22.05;;;12.43;;
48014;SDS011;33780;51.034;7.120;2024-03-08T07:31:34;22.90;;;11.75;;
48014;SDS011;33780;51.034;7.120;2024-03-08T07:34:02;22.38;;;12.13;;
48014;SDS011;33780;51.034;7.120;2024-03-08T07:36:28;23.17;;;12.02;;
48014;SDS011;33780;51.034;7.120;2024-03-08T07:38:53;22.88;;;12.00;;
48014;SDS011;33780;51.034;7.120;2024-03-08T07:41:19;22.73;;;12.40;;
48014;SDS011;33780;51.034;7.120;2024-03-08T07:43:45;21.75;;;12.23;;
48014;SDS011;33780;51.034;7.120;2024-03-08T07:46:10;20.45;;;11.95;;
48014;SDS011;33780;51.034;7.120;2024-03-08T07:48:36;20.88;;;11.95;;
48014;SDS011;33780;51.034;7.120;2024-03-08T07:51:01;20.08;;;12.00;;
48014;SDS011;33780;51.034;7.120;2024-03-08T07:53:27;21.33;;;11.95;;
48014;SDS011;33780;51.034;7.120;2024-03-08T07:55:53;22.33;;;11.82;;
48014;SDS011;33780;51.034;7.120;2024-03-08T07:58:18;20.60;;;12.10;;
48014;SDS011;33780;51.034;7.120;2024-03-08T08:00:44;19.35;;;11.88;;
48014;SDS011;33780;51.034;7.120;2024-03-08T08:03:09;19.60;;;11.77;;
48014;SDS011;33780;51.034;7.120;2024-03-08T08:05:34;20.83;;;12.32;;
48014;SDS011;33780;51.034;7.120;2024-03-08T08:08:04;21.98;;;12.35;;
48014;SDS011;33780;51.034;7.120;2024-03-08T08:10:31;20.75;;;11.98;;
48014;SDS011;33780;51.034;7.120;2024-03-08T08:12:57;20.55;;;12.32;;
48014;SDS011;33780;51.034;7.120;2024-03-08T08:15:23;20.90;;;11.57;;
48014;SDS011;33780;51.034;7.120;2024-03-08T08:17:48;19.23;;;11.80;;
48014;SDS011;33780;51.034;7.120;2024-03-08T08:20:14;21.98;;;12.00;;
48014;SDS011;33780;51.034;7.120;2024-03-08T08:22:40;20.77;;;11.88;;
48014;SDS011;33780;51.034;7.120;2024-03-08T08:25:09;21.50;;;11.98;;
48014;SDS011;33780;51.034;7.120;2024-03-08T08:27:38;20.10;;;11.53;;
48014;SDS011;33780;51.034;7.120;2024-03-08T08:30:04;20.60;;;11.90;;
48014;SDS011;33780;51.034;7.120;2024-03-08T08:32:33;20.17;;;11.88;;
48014;SDS011;33780;51.034;7.120;2024-03-08T08:35:01;23.10;;;12.38;;
48014;SDS011;33780;51.034;7.120;2024-03-08T08:37:30;19.70;;;11.35;;
48014;SDS011;33780;51.034;7.120;2024-03-08T08:39:56;18.83;;;11.45;;
48014;SDS011;33780;51.034;7.120;2024-03-08T08:42:22;20.40;;;11.90;;
48014;SDS011;33780;51.034;7.120;2024-03-08T08:44:48;19.33;;;11.68;;
48014;SDS011;33780;51.034;7.120;2024-03-08T08:47:15;20.45;;;11.77;;
48014;SDS011;33780;51.034;7.120;2024-03-08T08:49:43;21.02;;;11.90;;
48014;SDS011;33780;51.034;7.120;2024-03-08T08:52:11;20.02;;;11.90;;
48014;SDS011;33780;51.034;7.120;2024-03-08T08:54:36;20.45;;;12.10;;
48014;SDS011;33780;51.034;7.120;2024-03-08T08:57:01;19.77;;;11.48;;
48014;SDS011;33780;51.034;7.120;2024-03-08T08:59:32;18.98;;;11.43;;
48014;SDS011;33780;51.034;7.120;2024-03-08T09:01:58;18.40;;;10.90;;
48014;SDS011;33780;51.034;7.120;2024-03-08T09:04:23;18.20;;;10.32;;
48014;SDS011;33780;51.034;7.120;2024-03-08T09:06:49;18.70;;;11.20;;
48014;SDS011;33780;51.034;7.120;2024-03-08T09:09:14;18.23;;;10.80;;
48014;SDS011;33780;51.034;7.120;2024-03-08T09:11:40;19.00;;;11.35;;
48014;SDS011;33780;51.034;7.120;2024-03-08T09:14:07;20.27;;;11.38;;
48014;SDS011;33780;51.034;7.120;2024-03-08T09:16:33;18.27;;;10.45;;
48014;SDS011;33780;51.034;7.120;2024-03-08T09:18:59;17.13;;;10.73;;
48014;SDS011;33780;51.034;7.120;2024-03-08T09:21:25;16.88;;;10.23;;
48014;SDS011;33780;51.034;7.120;2024-03-08T09:23:52;17.67;;;10.07;;
48014;SDS011;33780;51.034;7.120;2024-03-08T09:26:17;16.35;;;10.48;;
48014;SDS011;33780;51.034;7.120;2024-03-08T09:28:43;17.52;;;10.30;;
48014;SDS011;33780;51.034;7.120;2024-03-08T09:31:08;17.08;;;10.48;;
48014;SDS011;33780;51.034;7.120;2024-03-08T09:33:36;16.70;;;9.95;;
48014;SDS011;33780;51.034;7.120;2024-03-08T09:36:02;16.20;;;9.50;;
48014;SDS011;33780;51.034;7.120;2024-03-08T09:38:28;17.08;;;9.77;;
48014;SDS011;33780;51.034;7.120;2024-03-08T09:40:54;15.73;;;9.60;;
48014;SDS011;33780;51.034;7.120;2024-03-08T09:43:21;15.73;;;9.35;;
48014;SDS011;33780;51.034;7.120;2024-03-08T09:45:49;17.75;;;10.00;;
48014;SDS011;33780;51.034;7.120;2024-03-08T09:48:16;15.27;;;9.18;;
48014;SDS011;33780;51.034;7.120;2024-03-08T09:50:44;17.23;;;9.68;;
48014;SDS011;33780;51.034;7.120;2024-03-08T09:53:10;15.13;;;9.20;;
48014;SDS011;33780;51.034;7.120;2024-03-08T09:55:37;15.48;;;9.70;;
48014;SDS011;33780;51.034;7.120;2024-03-08T09:58:06;15.02;;;8.75;;
48014;SDS011;33780;51.034;7.120;2024-03-08T10:01:01;14.07;;;8.60;;
48014;SDS011;33780;51.034;7.120;2024-03-08T10:03:27;15.10;;;9.50;;
48014;SDS011;33780;51.034;7.120;2024-03-08T10:05:53;13.88;;;8.55;;
48014;SDS011;33780;51.034;7.120;2024-03-08T10:08:21;13.30;;;8.85;;
48014;SDS011;33780;51.034;7.120;2024-03-08T10:10:47;13.43;;;8.48;;
48014;SDS011;33780;51.034;7.120;2024-03-08T10:13:12;13.43;;;8.23;;
48014;SDS011;33780;51.034;7.120;2024-03-08T10:15:39;13.55;;;8.73;;
48014;SDS011;33780;51.034;7.120;2024-03-08T10:18:05;13.57;;;8.10;;
48014;SDS011;33780;51.034;7.120;2024-03-08T10:20:31;12.90;;;7.45;;
48014;SDS011;33780;51.034;7.120;2024-03-08T10:23:00;15.32;;;9.35;;
48014;SDS011;33780;51.034;7.120;2024-03-08T10:25:25;14.10;;;8.50;;
48014;SDS011;33780;51.034;7.120;2024-03-08T10:27:51;12.85;;;7.72;;
48014;SDS011;33780;51.034;7.120;2024-03-08T10:30:17;12.35;;;7.85;;
48014;SDS011;33780;51.034;7.120;2024-03-08T10:32:46;14.13;;;8.27;;
48014;SDS011;33780;51.034;7.120;2024-03-08T10:35:12;13.38;;;8.73;;
48014;SDS011;33780;51.034;7.120;2024-03-08T10:37:48;12.48;;;7.85;;
48014;SDS011;33780;51.034;7.120;2024-03-08T10:40:22;12.60;;;8.10;;
48014;SDS011;33780;51.034;7.120;2024-03-08T10:42:53;14.05;;;8.15;;
48014;SDS011;33780;51.034;7.120;2024-03-08T10:45:38;12.90;;;8.32;;
48014;SDS011;33780;51.034;7.120;2024-03-08T10:50:53;12.75;;;7.35;;
48014;SDS011;33780;51.034;7.120;2024-03-08T10:53:18;11.68;;;7.43;;
48014;SDS011;33780;51.034;7.120;2024-03-08T10:55:47;13.27;;;8.00;;
48014;SDS011;33780;51.034;7.120;2024-03-08T10:58:14;13.25;;;8.00;;
48014;SDS011;33780;51.034;7.120;2024-03-08T11:00:41;12.98;;;7.65;;
48014;SDS011;33780;51.034;7.120;2024-03-08T11:03:07;11.88;;;7.75;;
48014;SDS011;33780;51.034;7.120;2024-03-08T11:05:54;11.63;;;7.70;;
48014;SDS011;33780;51.034;7.120;2024-03-08T11:08:19;12.65;;;7.85;;
48014;SDS011;33780;51.034;7.120;2024-03-08T11:10:54;12.43;;;7.65;;
48014;SDS011;33780;51.034;7.120;2024-03-08T11:16:13;12.43;;;6.93;;
48014;SDS011;33780;51.034;7.120;2024-03-08T11:19:01;9.98;;;7.00;;
48014;SDS011;33780;51.034;7.120;2024-03-08T11:21:35;11.05;;;6.53;;
48014;SDS011;33780;51.034;7.120;2024-03-08T11:24:11;10.98;;;7.47;;
48014;SDS011;33780;51.034;7.120;2024-03-08T11:26:38;10.63;;;7.38;;
48014;SDS011;33780;51.034;7.120;2024-03-08T11:32:05;11.48;;;6.85;;
48014;SDS011;33780;51.034;7.120;2024-03-08T11:34:31;13.02;;;7.43;;
48014;SDS011;33780;51.034;7.120;2024-03-08T11:36:58;11.40;;;6.72;;
48014;SDS011;33780;51.034;7.120;2024-03-08T11:39:24;10.38;;;6.95;;
48014;SDS011;33780;51.034;7.120;2024-03-08T11:41:49;12.63;;;7.20;;
48014;SDS011;33780;51.034;7.120;2024-03-08T11:44:15;11.75;;;7.15;;
48014;SDS011;33780;51.034;7.120;2024-03-08T11:46:42;11.50;;;7.10;;
48014;SDS011;33780;51.034;7.120;2024-03-08T11:49:12;10.50;;;6.65;;
48014;SDS011;33780;51.034;7.120;2024-03-08T11:51:37;9.68;;;6.70;;
48014;SDS011;33780;51.034;7.120;2024-03-08T11:54:03;10.25;;;6.85;;
48014;SDS011;33780;51.034;7.120;2024-03-08T11:56:28;10.50;;;6.57;;
48014;SDS011;33780;51.034;7.120;2024-03-08T11:58:54;10.20;;;6.55;;
48014;SDS011;33780;51.034;7.120;2024-03-08T12:01:23;10.73;;;6.78;;
48014;SDS011;33780;51.034;7.120;2024-03-08T12:03:53;12.32;;;6.88;;
48014;SDS011;33780;51.034;7.120;2024-03-08T12:06:19;10.88;;;7.00;;
48014;SDS011;33780;51.034;7.120;2024-03-08T12:08:48;11.88;;;7.00;;
48014;SDS011;33780;51.034;7.120;2024-03-08T12:11:14;10.43;;;7.13;;
48014;SDS011;33780;51.034;7.120;2024-03-08T12:13:41;11.98;;;7.15;;
48014;SDS011;33780;51.034;7.120;2024-03-08T12:16:06;9.75;;;6.80;;
48014;SDS011;33780;51.034;7.120;2024-03-08T12:18:33;10.57;;;6.65;;
48014;SDS011;33780;51.034;7.120;2024-03-08T12:23:39;10.43;;;6.75;;
48014;SDS011;33780;51.034;7.120;2024-03-08T12:26:15;10.38;;;6.45;;
48014;SDS011;33780;51.034;7.120;2024-03-08T12:28:41;10.10;;;6.45;;
48014;SDS011;33780;51.034;7.120;2024-03-08T12:34:37;9.82;;;6.43;;
48014;SDS011;33780;51.034;7.120;2024-03-08T12:37:05;10.77;;;6.63;;
48014;SDS011;33780;51.034;7.120;2024-03-08T12:39:32;10.48;;;6.97;;
48014;SDS011;33780;51.034;7.120;2024-03-08T12:41:58;11.25;;;6.15;;
48014;SDS011;33780;51.034;7.120;2024-03-08T12:44:24;9.88;;;6.40;;
48014;SDS011;33780;51.034;7.120;2024-03-08T12:46:51;10.10;;;6.57;;
48014;SDS011;33780;51.034;7.120;2024-03-08T12:49:18;11.15;;;6.63;;
48014;SDS011;33780;51.034;7.120;2024-03-08T12:51:47;10.48;;;6.35;;
48014;SDS011;33780;51.034;7.120;2024-03-08T12:54:12;9.98;;;6.70;;
48014;SDS011;33780;51.034;7.120;2024-03-08T12:56:38;9.95;;;6.35;;
48014;SDS011;33780;51.034;7.120;2024-03-08T12:59:04;10.60;;;6.50;;
48014;SDS011;33780;51.034;7.120;2024-03-08T13:01:31;10.90;;;6.13;;
48014;SDS011;33780;51.034;7.120;2024-03-08T13:03:57;9.75;;;6.32;;
48014;SDS011;33780;51.034;7.120;2024-03-08T13:06:27;9.88;;;6.53;;
48014;SDS011;33780;51.034;7.120;2024-03-08T13:08:54;11.30;;;6.38;;
48014;SDS011;33780;51.034;7.120;2024-03-08T13:11:20;10.25;;;6.75;;
48014;SDS011;33780;51.034;7.120;2024-03-08T13:13:47;10.00;;;6.53;;
48014;SDS011;33780;51.034;7.120;2024-03-08T13:16:21;10.48;;;6.97;;
48014;SDS011;33780;51.034;7.120;2024-03-08T13:18:47;10.10;;;6.78;;
48014;SDS011;33780;51.034;7.120;2024-03-08T13:21:13;10.75;;;6.78;;
48014;SDS011;33780;51.034;7.120;2024-03-08T13:23:40;11.57;;;6.90;;
48014;SDS011;33780;51.034;7.120;2024-03-08T13:26:09;10.50;;;6.65;;
48014;SDS011;33780;51.034;7.120;2024-03-08T13:28:50;10.65;;;7.07;;
48014;SDS011;33780;51.034;7.120;2024-03-08T13:31:21;10.32;;;6.60;;
48014;SDS011;33780;51.034;7.120;2024-03-08T13:33:47;10.23;;;6.43;;
48014;SDS011;33780;51.034;7.120;2024-03-08T13:36:13;9.73;;;6.43;;
48014;SDS011;33780;51.034;7.120;2024-03-08T13:38:46;10.75;;;6.95;;
48014;SDS011;33780;51.034;7.120;2024-03-08T13:41:12;9.90;;;6.72;;
48014;SDS011;33780;51.034;7.120;2024-03-08T13:43:42;10.93;;;7.22;;
48014;SDS011;33780;51.034;7.120;2024-03-08T13:46:11;9.75;;;6.40;;
48014;SDS011;33780;51.034;7.120;2024-03-08T13:48:37;11.40;;;7.18;;
48014;SDS011;33780;51.034;7.120;2024-03-08T13:51:06;11.38;;;7.40;;
48014;SDS011;33780;51.034;7.120;2024-03-08T13:53:32;10.75;;;7.32;;
48014;SDS011;33780;51.034;7.120;2024-03-08T13:55:59;10.98;;;7.50;;
48014;SDS011;33780;51.034;7.120;2024-03-08T13:58:26;12.50;;;7.18;;
48014;SDS011;33780;51.034;7.120;2024-03-08T14:00:52;10.50;;;7.13;;
48014;SDS011;33780;51.034;7.120;2024-03-08T14:03:17;10.25;;;6.88;;
48014;SDS011;33780;51.034;7.120;2024-03-08T14:05:43;11.48;;;7.55;;
48014;SDS011;33780;51.034;7.120;2024-03-08T14:08:08;10.30;;;6.85;;
48014;SDS011;33780;51.034;7.120;2024-03-08T14:10:34;10.70;;;7.20;;
48014;SDS011;33780;51.034;7.120;2024-03-08T14:13:02;13.82;;;7.25;;
48014;SDS011;33780;51.034;7.120;2024-03-08T14:15:30;11.73;;;7.22;;
48014;SDS011;33780;51.034;7.120;2024-03-08T14:17:56;9.75;;;6.70;;
48014;SDS011;33780;51.034;7.120;2024-03-08T14:20:22;13.77;;;7.38;;
48014;SDS011;33780;51.034;7.120;2024-03-08T14:23:45;13.15;;;7.72;;
48014;SDS011;33780;51.034;7.120;2024-03-08T14:26:10;12.75;;;8.00;;
48014;SDS011;33780;51.034;7.120;2024-03-08T14:28:36;11.63;;;7.78;;
48014;SDS011;33780;51.034;7.120;2024-03-08T14:31:02;11.45;;;7.50;;
48014;SDS011;33780;51.034;7.120;2024-03-08T14:33:28;13.07;;;7.65;;
48014;SDS011;33780;51.034;7.120;2024-03-08T14:35:56;12.07;;;7.18;;
48014;SDS011;33780;51.034;7.120;2024-03-08T14:38:21;12.20;;;8.30;;